Time;durP1;ratioP1;P1;durP2;ratioP2;P2;SDS_P1;SDS_P2;PMS_P1;PMS_P2;Temp;Humidity;BMP_temperature;BMP_pressure;BME280_temperature;BME280_humidity;BME280_pressure;Samples;Min_cycle;Max_cycle;Signal;HPM_P1;HPM_P2
2022/11/20 00:00:39;;;;;;;12.88;7.25;;;;;;;13.35;80.88;92779.16;5083539;28;20107;-36
2022/11/20 00:03:08;;;;;;;9.82;5.20;;;;;;;13.36;80.98;92788.94;5091267;28;20027;-36
2022/11/20 00:05:33;;;;;;;8.82;4.80;;;;;;;13.35;80.85;92793.03;5097838;28;20016;-36
2022/11/20 00:07:58;;;;;;;8.07;4.90;;;;;;;13.40;80.65;92797.56;5077557;28;20027;-36
2022/11/20 00:10:24;;;;;;;6.07;4.80;;;;;;;13.43;80.62;92804.69;5085388;28;20031;-36
2022/11/20 00:12:49;;;;;;;17.42;6.15;;;;;;;13.45;80.50;92820.75;5087460;28;20024;-36
2022/11/20 00:15:18;;;;;;;15.25;5.90;;;;;;;13.49;80.11;92807.19;5088042;28;20024;-36
2022/11/20 00:17:43;;;;;;;8.20;5.53;;;;;;;13.56;79.65;92807.03;5088386;28;20048;-36
2022/11/20 00:20:09;;;;;;;7.15;4.82;;;;;;;13.51;79.56;92804.56;5085011;28;20020;-36
2022/11/20 00:22:35;;;;;;;10.65;4.85;;;;;;;13.55;79.81;92805.59;5092479;28;20040;-36
2022/11/20 00:25:00;;;;;;;10.38;4.82;;;;;;;13.61;79.37;92797.72;5090855;28;20031;-36
2022/11/20 00:27:29;;;;;;;10.35;4.63;;;;;;;13.70;78.67;92799.03;5078533;28;20076;-36
2022/11/20 00:29:54;;;;;;;7.85;4.75;;;;;;;13.69;78.78;92798.28;5088476;28;20158;-36
2022/11/20 00:32:20;;;;;;;8.35;4.47;;;;;;;13.61;79.20;92794.19;5083849;28;20031;-36
2022/11/20 00:34:45;;;;;;;7.55;4.75;;;;;;;13.68;78.94;92805.16;5081540;28;20020;-36
2022/11/20 00:37:11;;;;;;;8.50;6.07;;;;;;;13.70;78.55;92793.47;5086575;28;20020;-35
2022/11/20 00:39:39;;;;;;;7.75;5.20;;;;;;;13.73;78.77;92808.22;5081420;28;20027;-36
2022/11/20 00:42:04;;;;;;;13.73;5.07;;;;;;;13.70;79.00;92799.03;5088310;28;20480;-36
2022/11/20 00:44:39;;;;;;;7.95;5.05;;;;;;;13.74;78.74;92798.56;5085204;28;20024;-36
2022/11/20 00:47:04;;;;;;;7.05;4.63;;;;;;;13.67;78.89;92798.13;5082937;28;20028;-36
2022/11/20 00:49:33;;;;;;;10.00;5.03;;;;;;;13.67;79.00;92789.09;5084829;28;20462;-36
2022/11/20 00:51:58;;;;;;;6.47;4.07;;;;;;;13.57;79.29;92789.09;5088671;28;20026;-36
2022/11/20 00:54:24;;;;;;;5.63;4.53;;;;;;;13.65;78.92;92786.16;5087101;28;20024;-36
2022/11/20 00:56:49;;;;;;;5.22;4.40;;;;;;;13.57;79.10;92782.81;5085630;28;20020;-36
2022/11/20 00:59:15;;;;;;;8.48;4.32;;;;;;;13.42;79.47;92789.41;5083281;28;20023;-35
2022/11/20 01:01:40;;;;;;;8.98;5.68;;;;;;;13.33;80.00;92786.59;5081909;28;20082;-36
2022/11/20 01:04:06;;;;;;;9.65;4.75;;;;;;;13.30;79.80;92788.50;5085284;28;20027;-35
2022/11/20 01:06:33;;;;;;;9.68;4.68;;;;;;;13.12;80.53;92780.91;5080830;28;20023;-36
2022/11/20 01:09:01;;;;;;;7.88;4.88;;;;;;;13.14;81.00;92773.47;5083551;28;20059;-35
2022/11/20 01:11:29;;;;;;;7.78;5.53;;;;;;;13.15;80.64;92783.22;5087616;28;20543;-36
2022/11/20 01:13:59;;;;;;;9.10;5.03;;;;;;;13.11;81.11;92779.41;5086501;28;20012;-36
2022/11/20 01:16:30;;;;;;;10.85;6.65;;;;;;;13.01;81.57;92786.97;5082633;28;20522;-35
2022/11/20 01:18:57;;;;;;;11.55;6.35;;;;;;;12.95;81.89;92776.88;5082201;28;20048;-36
2022/11/20 01:21:28;;;;;;;11.30;7.55;;;;;;;12.88;82.38;92780.53;5089262;28;20097;-36
2022/11/20 01:23:54;;;;;;;11.85;7.88;;;;;;;12.98;82.22;92788.84;5081500;28;20035;-36
2022/11/20 01:26:25;;;;;;;12.98;7.60;;;;;;;13.02;82.00;92783.63;5083423;28;20020;-36
2022/11/20 01:28:51;;;;;;;12.60;7.10;;;;;;;12.97;81.86;92770.78;5082806;28;20028;-36
2022/11/20 01:31:26;;;;;;;10.07;4.60;;;;;;;13.05;81.53;92760.31;5083665;28;20026;-36
2022/11/20 01:33:56;;;;;;;6.90;3.88;;;;;;;13.19;80.54;92769.66;5083982;28;20036;-35
2022/11/20 01:36:26;;;;;;;19.55;13.48;;;;;;;13.16;80.55;92770.84;5074336;28;20033;-35
2022/11/20 01:38:55;;;;;;;10.32;7.32;;;;;;;13.07;81.23;92762.50;5086191;28;20032;-36
2022/11/20 01:44:05;;;;;;;27.13;15.80;;;;;;;13.17;80.65;92768.78;5089251;28;20055;-35
2022/11/20 01:46:37;;;;;;;22.42;12.85;;;;;;;13.26;80.18;92759.75;5084402;28;20504;-36
2022/11/20 01:49:13;;;;;;;15.80;10.55;;;;;;;13.15;80.24;92754.78;5061960;28;20035;-36
2022/11/20 01:51:44;;;;;;;11.85;5.97;;;;;;;13.16;80.28;92745.91;5077124;28;20157;-36
2022/11/20 01:54:28;;;;;;;11.15;5.10;;;;;;;13.05;80.32;92731.88;5072136;28;20102;-36
2022/11/20 01:56:56;;;;;;;7.53;4.00;;;;;;;13.03;80.47;92718.56;5069828;28;20028;-36
2022/11/20 01:59:23;;;;;;;7.23;4.57;;;;;;;13.14;79.88;92731.16;5083312;28;20562;-35
2022/11/20 02:01:48;;;;;;;9.10;4.47;;;;;;;13.08;80.15;92720.34;5084166;28;20454;-36
2022/11/20 02:04:15;;;;;;;4.53;3.45;;;;;;;13.02;80.59;92713.59;5082277;28;20503;-36
2022/11/20 02:07:00;;;;;;;7.25;3.92;;;;;;;12.99;80.67;92707.22;5062096;28;20496;-36
2022/11/20 02:09:27;;;;;;;8.02;4.32;;;;;;;12.86;81.10;92708.34;5082139;28;20092;-36
2022/11/20 02:11:52;;;;;;;10.80;3.92;;;;;;;12.90;81.06;92705.16;5092697;28;20016;-36
2022/11/20 02:14:19;;;;;;;10.93;6.45;;;;;;;12.83;81.39;92700.47;5088755;28;20039;-36
2022/11/20 02:16:46;;;;;;;8.90;5.88;;;;;;;12.93;81.08;92701.94;5071510;28;20107;-36
2022/11/20 02:19:27;;;;;;;15.10;6.80;;;;;;;12.80;81.29;92712.69;5082403;28;20040;-35
2022/11/20 02:22:09;;;;;;;8.23;4.63;;;;;;;12.76;81.75;92721.44;5059723;28;20028;-36
2022/11/20 02:24:35;;;;;;;7.45;4.07;;;;;;;12.78;81.66;92720.88;5065749;28;20012;-36
2022/11/20 02:27:09;;;;;;;10.85;5.38;;;;;;;12.80;81.43;92709.94;5068125;28;20024;-36
2022/11/20 02:29:44;;;;;;;12.32;5.22;;;;;;;12.80;81.47;92690.53;5064375;28;20015;-36
2022/11/20 02:32:29;;;;;;;12.95;5.93;;;;;;;12.75;81.63;92686.03;5078133;28;20043;-36
2022/11/20 02:34:55;;;;;;;8.07;5.18;;;;;;;12.79;81.46;92698.13;5073615;28;20031;-36
2022/11/20 02:37:21;;;;;;;7.53;4.97;;;;;;;12.76;81.45;92696.53;5080813;28;20089;-36
2022/11/20 02:39:49;;;;;;;6.07;4.43;;;;;;;12.70;81.55;92709.19;5067436;28;20074;-36
2022/11/20 02:42:14;;;;;;;5.53;3.50;;;;;;;12.69;81.96;92705.69;5089977;28;20051;-36
2022/11/20 02:44:39;;;;;;;7.75;4.25;;;;;;;12.66;82.04;92726.25;5074286;28;20469;-35
2022/11/20 02:47:05;;;;;;;8.30;4.32;;;;;;;12.70;81.74;92723.03;5087470;28;20020;-35
2022/11/20 02:49:31;;;;;;;5.75;3.53;;;;;;;12.66;82.21;92711.66;5084085;28;20052;-35
2022/11/20 02:51:56;;;;;;;5.65;3.45;;;;;;;12.68;81.78;92701.47;5085775;28;20016;-35
2022/11/20 02:54:22;;;;;;;6.70;3.95;;;;;;;12.77;81.66;92709.06;5088919;28;20416;-35
2022/11/20 02:56:48;;;;;;;5.53;3.80;;;;;;;12.67;81.31;92715.88;5087005;28;20039;-35
2022/11/20 02:59:13;;;;;;;8.48;4.28;;;;;;;12.78;81.52;92731.94;5083865;28;20021;-36
2022/11/20 03:01:39;;;;;;;8.98;4.10;;;;;;;12.77;81.79;92745.09;5087918;28;20061;-35
2022/11/20 03:04:07;;;;;;;5.22;3.47;;;;;;;12.81;81.57;92750.91;5085574;28;20106;-36
2022/11/20 03:06:33;;;;;;;5.63;3.13;;;;;;;12.83;81.58;92744.78;5082602;28;20011;-36
2022/11/20 03:08:58;;;;;;;8.48;4.03;;;;;;;12.85;81.29;92742.91;5084529;28;20400;-36
2022/11/20 03:11:24;;;;;;;5.60;3.35;;;;;;;12.91;80.69;92745.38;5086534;28;20024;-35
2022/11/20 03:13:49;;;;;;;7.63;3.15;;;;;;;12.92;80.78;92752.41;5086661;28;20020;-35
2022/11/20 03:16:18;;;;;;;4.95;3.05;;;;;;;12.86;81.03;92749.19;5088250;28;20526;-35
2022/11/20 03:18:43;;;;;;;10.27;4.20;;;;;;;12.75;81.27;92749.75;5076492;28;20105;-35
2022/11/20 03:21:10;;;;;;;6.68;4.15;;;;;;;12.78;81.46;92759.66;5090152;28;20028;-36
2022/11/20 03:23:36;;;;;;;7.90;3.22;;;;;;;12.87;81.02;92767.25;5082917;28;20021;-35
2022/11/20 03:26:07;;;;;;;7.70;3.40;;;;;;;12.89;80.93;92770.91;5088403;28;20023;-35
2022/11/20 03:28:33;;;;;;;4.82;3.13;;;;;;;12.92;80.81;92752.41;5086712;28;20050;-35
2022/11/20 03:31:05;;;;;;;4.07;2.95;;;;;;;12.98;80.38;92777.03;5081111;28;20485;-35
2022/11/20 03:33:30;;;;;;;3.63;2.85;;;;;;;12.96;80.30;92774.84;5092440;28;20517;-35
2022/11/20 03:36:01;;;;;;;4.60;2.97;;;;;;;12.95;80.38;92790.75;5080091;28;20024;-35
2022/11/20 03:38:30;;;;;;;15.23;3.45;;;;;;;12.95;80.34;92790.75;5085714;28;20024;-36
2022/11/20 03:41:00;;;;;;;5.00;3.45;;;;;;;13.06;79.57;92786.00;5091148;28;20019;-36
2022/11/20 03:43:25;;;;;;;4.57;2.60;;;;;;;13.04;79.51;92777.50;5088300;28;20028;-36
2022/11/20 03:45:51;;;;;;;7.07;2.97;;;;;;;12.98;79.41;92782.56;5087939;28;20031;-36
2022/11/20 03:48:16;;;;;;;3.53;2.70;;;;;;;12.94;80.09;92796.88;5089433;28;20035;-36
2022/11/20 03:50:41;;;;;;;8.43;3.15;;;;;;;12.96;79.93;92788.72;5083162;28;20027;-36
2022/11/20 03:53:07;;;;;;;4.50;2.65;;;;;;;12.94;80.18;92781.00;5084476;28;20058;-36
2022/11/20 03:55:35;;;;;;;5.05;2.85;;;;;;;13.00;79.88;92786.22;5081296;28;20032;-36
2022/11/20 03:58:01;;;;;;;4.22;3.42;;;;;;;12.95;80.29;92803.88;5091988;28;20447;-36
2022/11/20 04:00:26;;;;;;;6.28;3.47;;;;;;;13.01;79.79;92787.72;5085593;28;20028;-36
2022/11/20 04:02:52;;;;;;;4.28;2.95;;;;;;;13.13;79.23;92785.84;5082039;28;20511;-35
2022/11/20 04:05:17;;;;;;;6.78;3.33;;;;;;;13.17;79.09;92777.81;5085441;28;20476;-36
2022/11/20 04:07:43;;;;;;;7.70;2.90;;;;;;;13.16;79.08;92770.09;5081845;28;20649;-35
2022/11/20 04:10:08;;;;;;;5.28;2.63;;;;;;;13.11;79.61;92760.75;5091803;28;20376;-36
2022/11/20 04:12:34;;;;;;;5.93;2.38;;;;;;;13.13;79.05;92763.69;5085041;28;20023;-36
2022/11/20 04:14:59;;;;;;;7.68;3.28;;;;;;;13.13;79.08;92768.47;5087337;28;20625;-36
2022/11/20 04:17:25;;;;;;;4.30;2.53;;;;;;;13.01;78.97;92751.69;5088111;28;20124;-36
2022/11/20 04:19:50;;;;;;;3.85;2.55;;;;;;;12.99;79.50;92757.09;5087695;28;20081;-35
2022/11/20 04:22:15;;;;;;;9.15;4.00;;;;;;;12.99;79.85;92768.16;5080605;28;20035;-36
2022/11/20 04:24:41;;;;;;;12.32;4.43;;;;;;;12.96;80.08;92774.84;5086039;28;20024;-35
2022/11/20 04:27:06;;;;;;;10.48;4.82;;;;;;;12.98;79.78;92772.22;5079406;28;20058;-35
2022/11/20 04:29:32;;;;;;;6.60;4.07;;;;;;;12.97;79.53;92776.34;5079879;28;20021;-36
2022/11/20 04:31:57;;;;;;;13.20;5.47;;;;;;;12.99;79.44;92765.41;5084146;28;20020;-35
2022/11/20 04:34:23;;;;;;;9.45;4.70;;;;;;;12.97;79.52;92772.81;5086170;28;20103;-36
2022/11/20 04:36:48;;;;;;;8.07;3.65;;;;;;;12.88;79.99;92772.22;5085600;28;20020;-36
2022/11/20 04:39:15;;;;;;;7.05;3.85;;;;;;;12.85;80.27;92769.88;5086899;28;20032;-35
2022/11/20 04:41:40;;;;;;;5.18;3.05;;;;;;;12.87;80.04;92762.44;5086006;28;20370;-36
2022/11/20 04:44:09;;;;;;;7.30;4.35;;;;;;;12.93;79.97;92778.78;5076810;28;20027;-35
2022/11/20 04:46:37;;;;;;;7.70;2.80;;;;;;;13.01;77.29;92767.56;5077093;28;20031;-35
2022/11/20 04:49:03;;;;;;;3.20;2.30;;;;;;;13.04;76.84;92761.59;5083768;28;20052;-36
2022/11/20 04:51:29;;;;;;;5.07;2.28;;;;;;;13.07;77.65;92759.72;5083516;28;20016;-36
2022/11/20 04:53:55;;;;;;;4.75;2.45;;;;;;;13.08;78.21;92763.97;5078532;28;20098;-36
2022/11/20 04:56:20;;;;;;;26.95;15.23;;;;;;;13.11;78.10;92771.84;5085117;28;20032;-36
2022/11/20 04:58:45;;;;;;;6.20;4.55;;;;;;;13.16;77.88;92787.47;5082056;28;20459;-35
2022/11/20 05:01:13;;;;;;;6.93;4.05;;;;;;;13.06;77.76;92783.94;5079403;28;20020;-36
2022/11/20 05:03:40;;;;;;;4.88;2.95;;;;;;;13.17;77.62;92771.53;5080675;28;20048;-35
2022/11/20 05:06:12;;;;;;;2.70;2.20;;;;;;;13.21;77.65;92758.72;5084147;28;20044;-36
2022/11/20 05:08:38;;;;;;;7.95;2.78;;;;;;;13.16;77.58;92759.75;5070399;28;20442;-35
2022/11/20 05:11:14;;;;;;;11.40;7.72;;;;;;;13.02;78.76;92761.44;5082028;28;20008;-36
2022/11/20 05:13:40;;;;;;;11.93;6.63;;;;;;;12.86;79.10;92757.50;5086727;28;20556;-36
2022/11/20 05:16:10;;;;;;;9.32;7.22;;;;;;;12.84;79.78;92765.66;5091700;28;20019;-36
2022/11/20 05:18:39;;;;;;;47.33;25.73;;;;;;;12.90;79.27;92777.91;5085111;28;20646;-35
2022/11/20 05:21:05;;;;;;;14.07;8.50;;;;;;;12.92;79.23;92796.72;5088372;28;20176;-36
2022/11/20 05:23:34;;;;;;;13.93;6.25;;;;;;;12.93;79.02;92798.16;5079885;28;20587;-35
2022/11/20 05:26:00;;;;;;;8.23;4.28;;;;;;;12.87;78.35;92795.69;5085516;28;20024;-35
2022/11/20 05:28:27;;;;;;;6.32;4.60;;;;;;;12.76;79.21;92790.69;5085236;28;20050;-36
2022/11/20 05:30:55;;;;;;;11.32;5.53;;;;;;;12.69;80.04;92793.59;5074329;28;20397;-36
2022/11/20 05:33:21;;;;;;;7.60;4.87;;;;;;;12.72;80.25;92795.94;5089272;28;20024;-36
2022/11/20 05:35:47;;;;;;;10.15;6.35;;;;;;;12.66;81.44;92786.44;5084001;28;20179;-36
2022/11/20 05:38:13;;;;;;;7.60;5.53;;;;;;;12.78;81.16;92776.25;5087455;28;20016;-36
2022/11/20 05:40:38;;;;;;;17.60;11.30;;;;;;;12.69;82.23;92802.63;5085205;28;20107;-36
2022/11/20 05:43:04;;;;;;;21.42;10.30;;;;;;;12.74;81.78;92798.13;5079110;28;20024;-36
2022/11/20 05:45:29;;;;;;;12.57;6.82;;;;;;;12.76;81.24;92812.13;5079655;28;20024;-36
2022/11/20 05:47:59;;;;;;;8.43;5.40;;;;;;;12.86;80.53;92821.22;5088494;28;20024;-36
2022/11/20 05:50:25;;;;;;;12.57;6.93;;;;;;;12.74;81.28;92818.25;5084826;28;20052;-36
2022/11/20 05:52:50;;;;;;;10.27;4.00;;;;;;;12.89;79.28;92815.22;5076261;28;20027;-36
2022/11/20 05:55:15;;;;;;;7.63;3.40;;;;;;;13.06;79.23;92814.41;5078730;28;20024;-36
2022/11/20 05:57:41;;;;;;;7.15;2.13;;;;;;;13.25;76.55;92772.91;5078384;28;20042;-36
2022/11/20 06:00:07;;;;;;;2.35;1.60;;;;;;;13.37;77.30;92784.13;5083177;28;20031;-36
2022/11/20 06:02:35;;;;;;;5.05;1.50;;;;;;;13.47;75.89;92779.31;5083334;28;20013;-35
2022/11/20 06:05:01;;;;;;;4.17;1.27;;;;;;;13.65;74.89;92786.91;5076102;28;20032;-36
2022/11/20 06:07:27;;;;;;;2.60;1.00;;;;;;;13.84;73.03;92783.38;5084033;28;20408;-35
2022/11/20 06:09:53;;;;;;;1.80;1.50;;;;;;;14.02;72.46;92797.81;5086871;28;20019;-36
2022/11/20 07:11:35;;;;;;;20.90;10.65;;;;;;;14.26;80.97;92835.59;5138959;27;20153;-36
2022/11/20 07:14:01;;;;;;;16.13;8.60;;;;;;;14.32;80.80;92838.84;5023035;28;1354422;-36
2022/11/20 07:16:27;;;;;;;14.27;9.10;;;;;;;14.30;79.77;92842.22;5076675;28;20029;-35
2022/11/20 07:18:52;;;;;;;10.82;5.43;;;;;;;14.27;76.73;92832.25;5077640;28;20103;-35
2022/11/20 07:21:18;;;;;;;11.45;5.88;;;;;;;14.37;78.61;92829.47;5073704;28;20043;-35
2022/11/20 07:23:43;;;;;;;7.25;4.78;;;;;;;14.34;79.38;92825.09;5079925;28;20028;-36
2022/11/20 07:26:10;;;;;;;6.18;4.50;;;;;;;14.09;80.34;92833.00;5073389;28;20017;-36
2022/11/20 07:28:36;;;;;;;8.75;5.32;;;;;;;14.04;81.70;92836.81;5076330;28;20017;-36
2022/11/20 07:31:02;;;;;;;8.35;4.70;;;;;;;13.95;81.57;92846.59;5070065;28;20086;-36
2022/11/20 07:33:28;;;;;;;13.95;7.53;;;;;;;13.97;82.68;92840.50;5073213;28;20059;-36
2022/11/20 07:35:53;;;;;;;10.63;6.45;;;;;;;13.99;83.31;92838.56;5070582;28;20056;-36
2022/11/20 07:38:19;;;;;;;10.32;7.15;;;;;;;14.00;83.87;92842.06;5070704;28;20082;-36
2022/11/20 07:40:44;;;;;;;4.85;3.72;;;;;;;13.89;84.40;92846.19;5074837;28;20025;-36
2022/11/20 07:43:10;;;;;;;5.32;2.72;;;;;;;13.94;80.93;92855.53;5069378;28;20031;-36
2022/11/20 07:45:35;;;;;;;5.80;2.50;;;;;;;13.90;79.09;92849.69;5076332;28;20046;-36
2022/11/20 07:48:01;;;;;;;5.57;2.00;;;;;;;13.97;78.77;92848.81;5075756;28;20027;-43
2022/11/20 07:50:26;;;;;;;5.28;3.90;;;;;;;14.04;79.09;92848.66;5073715;28;20032;-45
2022/11/20 07:52:52;;;;;;;8.65;4.32;;;;;;;14.08;79.77;92843.38;5071707;28;20032;-44
2022/11/20 07:55:18;;;;;;;10.05;6.50;;;;;;;14.10;80.59;92834.47;5076321;28;20027;-43
2022/11/20 07:57:43;;;;;;;32.58;16.33;;;;;;;14.15;81.46;92827.88;5070145;28;20028;-43
2022/11/20 08:00:10;;;;;;;57.20;26.33;;;;;;;14.19;81.84;92830.94;5068365;28;20024;-41
2022/11/20 08:02:42;;;;;;;90.78;59.65;;;;;;;14.14;81.23;92823.66;5066736;28;20052;-42
2022/11/20 08:05:09;;;;;;;19.50;11.98;;;;;;;14.22;81.65;92846.44;5068423;28;20093;-47
2022/11/20 08:07:42;;;;;;;8.07;5.07;;;;;;;14.29;80.95;92840.03;5067352;28;20416;-42
2022/11/20 08:10:10;;;;;;;12.80;10.40;;;;;;;14.36;80.63;92834.28;5062673;28;20028;-42
2022/11/20 08:15:21;;;;;;;27.52;15.20;;;;;;;14.22;84.62;92832.56;5054023;28;20062;-43
2022/11/20 08:17:47;;;;;;;25.27;18.73;;;;;;;14.03;85.00;92815.94;5065322;28;20033;-44
2022/11/20 08:20:12;;;;;;;23.40;14.68;;;;;;;14.22;84.87;92829.78;5066366;28;20021;-42
2022/11/20 08:22:38;;;;;;;31.48;22.17;;;;;;;14.36;83.98;92839.13;5059145;28;20481;-42
2022/11/20 08:25:04;;;;;;;31.08;22.38;;;;;;;14.47;83.55;92841.28;5056433;28;20425;-45
2022/11/20 08:27:31;;;;;;;27.92;18.48;;;;;;;14.51;83.40;92840.84;5059258;28;20047;-45
2022/11/20 08:29:57;;;;;;;19.55;13.25;;;;;;;14.41;83.57;92843.66;5050981;28;20032;-42
2022/11/20 08:32:22;;;;;;;13.88;11.20;;;;;;;14.51;83.56;92852.66;5054182;28;20511;-44
2022/11/20 08:34:48;;;;;;;14.02;8.85;;;;;;;14.56;82.37;92845.34;5053654;28;20053;-42
2022/11/20 08:37:13;;;;;;;17.52;11.75;;;;;;;14.56;81.54;92834.25;5050277;28;20032;-43
2022/11/20 08:39:39;;;;;;;15.40;8.75;;;;;;;14.67;80.01;92845.47;5053567;28;20044;-45
2022/11/20 08:42:08;;;;;;;11.82;6.93;;;;;;;14.77;79.34;92848.22;5056829;28;20024;-43
2022/11/20 08:44:34;;;;;;;7.03;5.88;;;;;;;14.73;80.31;92837.53;5053846;28;20025;-41
2022/11/20 08:47:00;;;;;;;9.80;5.57;;;;;;;14.88;79.85;92833.69;5050373;28;20052;-41
2022/11/20 08:49:25;;;;;;;15.23;7.00;;;;;;;14.89;79.97;92816.44;5054311;28;20036;-43
2022/11/20 08:51:53;;;;;;;17.63;11.20;;;;;;;15.16;81.14;92827.25;5054846;28;20024;-41
2022/11/20 08:54:21;;;;;;;21.73;11.40;;;;;;;15.34;77.96;92813.81;5053818;28;20021;-44
2022/11/20 08:56:47;;;;;;;16.58;11.77;;;;;;;15.45;76.30;92813.94;5054628;28;20028;-43
2022/11/20 08:59:12;;;;;;;7.35;6.13;;;;;;;15.45;75.42;92815.97;5056874;28;20021;-47
2022/11/20 09:01:38;;;;;;;6.88;4.60;;;;;;;15.31;75.33;92809.47;5054874;28;20098;-43
2022/11/20 09:04:04;;;;;;;7.88;4.90;;;;;;;15.44;76.38;92811.75;5057583;28;20059;-43
2022/11/20 09:06:30;;;;;;;12.07;8.20;;;;;;;15.57;75.94;92802.88;5054073;28;20035;-36
2022/11/20 09:08:56;;;;;;;25.48;11.38;;;;;;;15.57;75.13;92808.44;5055087;28;20552;-35
2022/11/20 09:11:22;;;;;;;18.55;12.23;;;;;;;15.79;74.56;92818.94;5049766;28;20471;-35
2022/11/20 09:13:48;;;;;;;20.65;15.27;;;;;;;16.30;74.19;92822.16;5054366;28;20131;-35
2022/11/20 09:16:13;;;;;;;20.85;12.98;;;;;;;16.71;73.14;92820.59;5063910;28;20024;-35
2022/11/20 09:18:39;;;;;;;30.52;15.82;;;;;;;16.97;72.09;92821.44;5050332;28;20101;-35
2022/11/20 09:21:07;;;;;;;22.77;11.85;;;;;;;17.05;70.94;92813.56;5055144;28;20086;-35
2022/11/20 09:23:35;;;;;;;23.10;10.75;;;;;;;17.05;70.75;92816.34;5034667;28;20025;-35
2022/11/20 09:26:10;;;;;;;15.55;8.68;;;;;;;16.94;71.81;92822.66;5057138;28;20025;-35
2022/11/20 09:28:35;;;;;;;28.15;12.70;;;;;;;16.87;71.76;92812.50;5051652;28;20416;-36
2022/11/20 09:31:05;;;;;;;28.67;15.05;;;;;;;16.85;72.15;92823.53;5056053;28;20031;-36
2022/11/20 09:33:31;;;;;;;26.77;12.00;;;;;;;16.78;72.66;92810.53;5053397;28;20016;-36
2022/11/20 09:35:57;;;;;;;23.92;12.57;;;;;;;16.75;72.88;92814.53;5054243;28;20039;-35
2022/11/20 09:38:23;;;;;;;23.02;13.85;;;;;;;16.78;73.39;92811.28;5053174;28;20103;-35
2022/11/20 09:40:55;;;;;;;20.25;7.55;;;;;;;16.84;74.31;92802.53;5056047;28;20090;-35
2022/11/20 09:43:43;;;;;;;20.30;6.95;;;;;;;16.90;73.96;92805.69;5033920;28;20535;-35
2022/11/20 09:46:26;;;;;;;24.85;10.52;;;;;;;16.85;74.17;92810.28;5055248;28;20021;-36
2022/11/20 09:49:03;;;;;;;26.35;10.00;;;;;;;16.79;74.09;92811.97;5053011;28;20044;-35
2022/11/20 09:51:50;;;;;;;12.45;6.13;;;;;;;16.72;73.72;92807.38;5034299;28;20029;-36
2022/11/20 09:54:30;;;;;;;28.48;12.27;;;;;;;16.65;74.64;92807.00;5053322;28;20021;-36
2022/11/20 09:57:19;;;;;;;12.55;7.78;;;;;;;16.53;74.96;92797.91;5039022;28;20033;-42
2022/11/20 09:59:57;;;;;;;8.30;5.68;;;;;;;16.43;75.67;92813.25;5052959;28;20025;-42
2022/11/20 10:02:22;;;;;;;11.98;7.03;;;;;;;16.37;76.24;92804.50;5036122;28;20027;-43
2022/11/20 10:05:12;;;;;;;11.05;8.48;;;;;;;16.45;76.53;92816.16;5052090;28;20033;-42
2022/11/20 10:07:48;;;;;;;12.40;8.63;;;;;;;16.47;76.17;92830.94;5026558;28;20502;-42
2022/11/20 10:10:33;;;;;;;15.27;7.82;;;;;;;16.44;75.99;92832.13;5049502;28;20033;-42
2022/11/20 10:13:25;;;;;;;7.68;5.18;;;;;;;16.32;75.27;92836.97;5039390;28;20041;-42
2022/11/20 10:16:12;;;;;;;19.60;9.88;;;;;;;16.19;76.00;92834.00;5035522;28;20033;-41
2022/11/20 10:18:52;;;;;;;12.02;8.02;;;;;;;15.93;78.67;92836.56;5038398;28;20072;-37
2022/11/20 10:21:32;;;;;;;6.60;3.92;;;;;;;15.82;75.29;92833.72;5029341;28;20060;-38
2022/11/20 10:24:25;;;;;;;10.27;5.80;;;;;;;15.70;75.50;92830.19;5033374;28;20087;-37
2022/11/20 10:27:03;;;;;;;6.53;3.33;;;;;;;15.60;75.83;92818.38;5032034;28;20425;-37
2022/11/20 10:29:34;;;;;;;2.88;2.35;;;;;;;15.48;74.78;92835.00;5035164;28;20047;-38
2022/11/20 10:32:20;;;;;;;10.65;5.50;;;;;;;15.39;74.93;92833.00;5032695;28;20406;-37
2022/11/20 10:35:15;;;;;;;8.00;3.70;;;;;;;15.36;75.87;92844.56;5028923;28;20087;-37
2022/11/20 10:37:44;;;;;;;7.18;5.63;;;;;;;15.28;75.28;92839.19;5008227;28;20050;-38
2022/11/20 10:40:19;;;;;;;5.00;4.30;;;;;;;15.25;74.67;92828.50;5030270;28;20028;-38
2022/11/20 10:42:57;;;;;;;4.28;3.30;;;;;;;15.10;75.44;92846.31;5029117;28;20029;-38
2022/11/20 10:45:26;;;;;;;6.85;4.82;;;;;;;14.88;74.90;92836.47;5029749;28;20040;-37
2022/11/20 10:48:00;;;;;;;6.00;4.47;;;;;;;14.52;75.62;92806.91;5030240;28;20493;-37
2022/11/20 10:50:26;;;;;;;11.00;6.60;;;;;;;14.75;75.59;92848.09;5028082;28;20559;-38
2022/11/20 10:53:26;;;;;;;8.75;4.72;;;;;;;14.79;75.13;92829.63;5030083;28;20029;-37
2022/11/20 10:56:09;;;;;;;10.98;5.53;;;;;;;14.66;75.61;92788.44;5026439;28;20068;-36
2022/11/20 10:58:44;;;;;;;4.57;3.45;;;;;;;14.48;77.76;92792.75;5030846;28;20037;-35
2022/11/20 11:01:18;;;;;;;7.03;3.47;;;;;;;14.55;79.09;92800.19;5031541;28;20022;-35
2022/11/20 11:03:44;;;;;;;5.90;4.07;;;;;;;14.62;79.32;92779.13;5032510;28;20394;-36
2022/11/20 11:06:18;;;;;;;13.88;9.70;;;;;;;14.84;80.21;92786.16;5028996;28;20028;-36
2022/11/20 11:08:45;;;;;;;13.90;9.15;;;;;;;15.01;79.29;92778.31;5031710;28;20029;-35
2022/11/20 11:11:25;;;;;;;19.52;12.10;;;;;;;15.03;77.59;92781.22;5039328;28;20104;-35
2022/11/20 11:13:51;;;;;;;17.45;12.02;;;;;;;15.05;76.92;92761.91;5057328;28;20053;-36
2022/11/20 11:16:26;;;;;;;13.50;9.75;;;;;;;15.09;76.99;92764.25;5051481;28;20028;-36
2022/11/20 11:19:03;;;;;;;19.98;12.02;;;;;;;15.09;77.41;92756.59;5061373;28;20025;-36
2022/11/20 11:21:29;;;;;;;23.08;15.25;;;;;;;15.08;77.63;92755.16;5032902;28;20021;-36
2022/11/20 11:24:00;;;;;;;13.40;10.57;;;;;;;14.92;76.67;92767.97;5049683;28;20472;-36
2022/11/20 11:26:25;;;;;;;11.10;8.13;;;;;;;14.72;78.38;92760.34;5057318;28;20032;-36
2022/11/20 11:28:57;;;;;;;10.95;9.30;;;;;;;14.67;79.53;92764.91;5052223;28;20032;-35
2022/11/20 11:31:27;;;;;;;6.90;5.50;;;;;;;14.65;79.09;92758.47;5053870;28;20033;-36
2022/11/20 11:34:16;;;;;;;7.72;5.57;;;;;;;14.54;80.03;92753.53;5052924;28;20028;-36
2022/11/20 11:36:41;;;;;;;;;;;;;;;14.58;79.31;92757.31;5051238;28;20488;-35
2022/11/20 11:39:18;;;;;;;8.52;4.82;;;;;;;14.64;78.69;92757.03;5056281;28;19931;-35
2022/11/20 11:41:44;;;;;;;7.55;3.78;;;;;;;14.62;79.40;92754.81;5043611;28;20036;-36
2022/11/20 11:47:23;;;;;;;10.80;5.72;;;;;;;14.76;80.91;92758.56;5053464;28;20067;-35
2022/11/20 11:49:48;;;;;;;9.93;4.88;;;;;;;14.91;80.12;92766.53;5034335;28;20421;-36
2022/11/20 11:52:19;;;;;;;6.95;3.33;;;;;;;14.90;79.19;92769.91;5052216;28;20021;-36
2022/11/20 11:54:52;;;;;;;9.30;4.03;;;;;;;14.86;79.77;92777.97;5037932;28;20059;-36
2022/11/20 11:57:28;;;;;;;11.88;6.47;;;;;;;14.92;80.23;92809.66;5053774;28;20508;-36
2022/11/20 12:00:03;;;;;;;23.13;16.48;;;;;;;14.93;80.68;92819.47;5058867;28;20035;-36
2022/11/20 12:02:36;;;;;;;20.58;13.48;;;;;;;14.89;80.87;92826.81;5051407;28;20067;-35
2022/11/20 12:05:14;;;;;;;28.38;18.23;;;;;;;14.77;82.98;92826.00;5036936;28;20079;-35
2022/11/20 12:07:46;;;;;;;25.85;17.83;;;;;;;14.71;83.63;92834.63;5043306;28;20505;-35
2022/11/20 12:10:22;;;;;;;17.42;12.20;;;;;;;14.58;84.03;92839.94;5054005;28;20021;-35
2022/11/20 12:12:54;;;;;;;4.88;3.72;;;;;;;14.35;84.27;92848.78;5034320;28;20045;-35
2022/11/20 12:15:29;;;;;;;8.13;4.40;;;;;;;13.97;83.04;92851.59;5034013;28;20057;-35
2022/11/20 12:17:55;;;;;;;10.77;3.17;;;;;;;13.79;83.68;92861.38;5036954;28;20021;-35
2022/11/20 12:20:24;;;;;;;10.52;5.78;;;;;;;13.62;83.17;92860.19;5033729;28;20024;-35
2022/11/20 12:23:28;;;;;;;5.90;3.53;;;;;;;13.52;82.67;92872.56;5030995;28;20028;-35
2022/11/20 12:25:57;;;;;;;8.10;4.60;;;;;;;13.47;84.13;92851.44;5035933;28;20036;-35
2022/11/20 12:28:41;;;;;;;8.90;3.83;;;;;;;13.35;84.84;92861.59;5033389;28;20025;-35
2022/11/20 12:31:12;;;;;;;4.80;1.58;;;;;;;13.20;83.96;92881.28;5033253;28;20040;-35
2022/11/20 12:33:53;;;;;;;5.97;1.55;;;;;;;13.21;83.80;92882.75;5036883;28;20398;-36
2022/11/20 12:36:32;;;;;;;11.35;3.20;;;;;;;13.19;84.70;92871.50;5042563;28;20028;-36
2022/11/20 12:39:00;;;;;;;;;;;;;;;13.22;84.99;92873.84;5036981;28;20037;-35
2022/11/20 12:47:29;;;;;;;10.75;5.32;;;;;;;13.03;87.56;92862.69;5034105;28;20067;-35
2022/11/20 12:50:24;;;;;;;7.07;4.05;;;;;;;13.03;87.25;92865.44;5039273;28;20105;-35
2022/11/20 12:52:57;;;;;;;7.97;3.60;;;;;;;12.85;87.06;92870.34;5032176;28;20483;-35